createdAt,value
2023-05-02T00:02:50.202Z,12.92
2023-05-02T00:06:03.019Z,12.86
2023-05-02T00:09:16.041Z,12.83
2023-05-02T00:12:28.765Z,12.82
2023-05-02T00:15:41.079Z,12.99
2023-05-02T00:18:53.741Z,12.84
2023-05-02T00:22:06.132Z,13.18
2023-05-02T00:25:18.889Z,12.92
2023-05-02T00:28:32.057Z,12.97
2023-05-02T00:31:44.743Z,13.21
2023-05-02T00:34:57.198Z,13.30
2023-05-02T00:38:09.849Z,13.13
2023-05-02T00:41:22.194Z,13.33
2023-05-02T00:44:35.189Z,13.20
2023-05-02T00:47:47.623Z,13.13
2023-05-02T00:51:00.853Z,13.34
2023-05-02T00:54:13.777Z,13.40
2023-05-02T00:57:26.779Z,13.48
2023-05-02T01:01:01.126Z,13.52
2023-05-02T01:04:21.952Z,13.59
2023-05-02T01:07:55.677Z,13.62
2023-05-02T01:11:49.993Z,13.70
2023-05-02T01:15:04.058Z,13.80
2023-05-02T01:18:18.584Z,13.69
2023-05-02T01:21:31.248Z,13.64
2023-05-02T01:25:05.364Z,13.65
2023-05-02T01:28:56.155Z,13.47
2023-05-02T01:32:08.984Z,13.26
2023-05-02T01:35:21.541Z,13.30
2023-05-02T01:38:34.317Z,12.68
2023-05-02T01:41:47.021Z,12.38
2023-05-02T01:44:59.695Z,12.65
2023-05-02T01:48:12.208Z,12.28
2023-05-02T01:51:29.823Z,12.53
2023-05-02T01:54:42.542Z,12.19
2023-05-02T01:57:55.133Z,11.91
2023-05-02T02:01:07.568Z,12.14
2023-05-02T02:04:20.578Z,12.09
2023-05-02T02:07:32.939Z,12.22
2023-05-02T02:10:46.784Z,11.88
2023-05-02T02:14:02.092Z,11.84
2023-05-02T02:17:48.184Z,11.84
2023-05-02T02:21:01.127Z,12.16
2023-05-02T02:24:13.522Z,11.98
2023-05-02T02:27:26.189Z,11.99
2023-05-02T02:30:38.544Z,12.07
2023-05-02T02:33:51.335Z,11.92
2023-05-02T02:37:20.592Z,11.97
2023-05-02T02:40:38.210Z,11.89
2023-05-02T02:44:02.676Z,11.91
2023-05-02T02:47:39.405Z,11.51
2023-05-02T02:51:07.157Z,11.53
2023-05-02T02:54:38.440Z,11.62
2023-05-02T02:58:23.077Z,11.63
2023-05-02T03:01:35.909Z,11.57
2023-05-02T03:04:48.537Z,11.51
2023-05-02T03:08:01.420Z,11.52
2023-05-02T03:11:13.849Z,11.41
2023-05-02T03:14:27.214Z,11.43
2023-05-02T03:17:39.598Z,11.59
2023-05-02T03:20:52.260Z,11.24
2023-05-02T03:24:04.883Z,11.42
2023-05-02T03:27:17.573Z,11.34
2023-05-02T03:30:29.923Z,11.59
2023-05-02T03:33:42.916Z,11.65
2023-05-02T03:36:55.381Z,11.77
2023-05-02T03:40:08.453Z,11.70
2023-05-02T03:43:20.900Z,11.77
2023-05-02T03:46:33.746Z,11.71
2023-05-02T03:49:46.912Z,11.58
2023-05-02T03:52:59.887Z,11.34
2023-05-02T03:56:12.786Z,11.63
2023-05-02T03:59:27.380Z,11.45
2023-05-02T04:02:40.637Z,11.34
2023-05-02T04:05:54.642Z,11.35
2023-05-02T04:09:07.432Z,11.34
2023-05-02T04:12:20.700Z,11.38
2023-05-02T04:15:33.374Z,11.41
2023-05-02T04:18:46.456Z,11.30
2023-05-02T04:21:59.637Z,11.42
2023-05-02T04:25:13.974Z,11.80
2023-05-02T04:28:26.809Z,11.99
2023-05-02T04:31:39.836Z,12.27
2023-05-02T04:34:52.275Z,12.39
2023-05-02T04:38:05.445Z,12.50
2023-05-02T04:41:18.398Z,12.63
2023-05-02T04:44:32.926Z,12.80
2023-05-02T04:47:45.857Z,12.91
2023-05-02T04:50:58.576Z,13.14
2023-05-02T04:54:12.731Z,13.35
2023-05-02T04:57:26.543Z,13.51
2023-05-02T05:00:39.242Z,13.50
2023-05-02T05:03:52.025Z,13.52
2023-05-02T05:07:04.495Z,13.60
2023-05-02T05:10:17.634Z,13.71
2023-05-02T05:13:30.128Z,13.95
2023-05-02T05:16:43.191Z,13.97
2023-05-02T05:19:55.949Z,14.10
2023-05-02T05:23:08.597Z,14.15
2023-05-02T05:26:21.453Z,14.20
2023-05-02T05:29:34.331Z,14.27
2023-05-02T05:32:46.950Z,14.49
2023-05-02T05:36:06.133Z,14.45
2023-05-02T05:39:18.599Z,14.59
2023-05-02T05:42:32.109Z,14.86
2023-05-02T05:45:45.338Z,14.83
2023-05-02T05:48:58.354Z,15.02
2023-05-02T05:52:13.014Z,15.05
2023-05-02T05:55:27.759Z,15.15
2023-05-02T05:58:40.507Z,15.43
2023-05-02T06:01:54.275Z,15.44
2023-05-02T06:05:07.686Z,15.38
2023-05-02T06:08:24.579Z,15.47
2023-05-02T06:11:38.078Z,15.29
2023-05-02T06:14:50.808Z,15.49
2023-05-02T06:18:03.919Z,15.60
2023-05-02T06:21:16.632Z,15.61
2023-05-02T06:24:29.411Z,15.31
2023-05-02T06:27:41.843Z,15.51
2023-05-02T06:31:23.252Z,15.86
2023-05-02T06:34:35.708Z,15.85
2023-05-02T06:37:48.388Z,15.54
2023-05-02T06:41:00.784Z,15.68
2023-05-02T06:44:13.422Z,15.83
2023-05-02T06:47:26.417Z,15.96
2023-05-02T06:50:39.512Z,16.15
2023-05-02T06:53:52.009Z,16.24
2023-05-02T06:57:04.626Z,16.09
2023-05-02T07:00:17.745Z,16.15
2023-05-02T07:03:30.428Z,16.32
2023-05-02T07:06:42.935Z,16.25
2023-05-02T07:09:55.672Z,16.45
2023-05-02T07:13:08.160Z,16.61
2023-05-02T07:16:20.933Z,16.75
2023-05-02T07:19:33.378Z,16.68
2023-05-02T07:22:46.106Z,16.92
2023-05-02T07:25:59.926Z,17.13
2023-05-02T07:29:12.636Z,17.15
2023-05-02T07:32:26.632Z,17.04
2023-05-02T07:35:39.465Z,17.16
2023-05-02T07:38:51.855Z,17.69
2023-05-02T07:42:04.628Z,18.03
2023-05-02T07:45:17.112Z,18.33
2023-05-02T07:48:30.435Z,18.69
2023-05-02T07:51:45.922Z,19.03
2023-05-02T07:54:58.557Z,19.11
2023-05-02T07:58:11.318Z,19.60
2023-05-02T08:01:23.931Z,19.65
2023-05-02T08:04:36.615Z,19.50
2023-05-02T08:07:49.018Z,19.76
2023-05-02T08:11:01.756Z,19.78
2023-05-02T08:14:16.106Z,19.94
2023-05-02T08:17:29.267Z,19.94
2023-05-02T08:20:41.673Z,19.94
2023-05-02T08:24:00.314Z,20.36
2023-05-02T08:27:12.657Z,20.51
2023-05-02T08:30:25.584Z,20.79
2023-05-02T08:33:37.957Z,20.85
2023-05-02T08:36:50.618Z,21.24
2023-05-02T08:40:03.322Z,21.24
2023-05-02T08:43:16.729Z,21.51
2023-05-02T08:46:29.175Z,21.51
2023-05-02T08:49:42.434Z,21.21
2023-05-02T08:52:54.842Z,21.86
2023-05-02T08:56:08.174Z,21.74
2023-05-02T08:59:20.733Z,21.80
2023-05-02T09:02:54.438Z,21.72
2023-05-02T09:06:13.778Z,21.43
2023-05-02T09:09:26.715Z,21.58
2023-05-02T09:12:41.392Z,21.69
2023-05-02T09:16:01.504Z,21.76
2023-05-02T09:19:20.675Z,21.80
2023-05-02T09:22:34.590Z,21.75
2023-05-02T09:25:47.108Z,21.82
2023-05-02T09:29:01.356Z,21.74
2023-05-02T09:32:13.866Z,21.63
2023-05-02T09:35:26.669Z,21.74
2023-05-02T09:38:39.094Z,21.92
2023-05-02T09:41:51.850Z,22.39
2023-05-02T09:45:04.585Z,22.35
2023-05-02T09:48:18.290Z,22.47
2023-05-02T09:51:31.232Z,22.80
2023-05-02T09:54:44.278Z,22.77
2023-05-02T09:57:56.733Z,23.14
2023-05-02T10:01:14.765Z,23.10
2023-05-02T10:04:28.415Z,22.49
2023-05-02T10:07:40.962Z,22.88
2023-05-02T10:10:55.353Z,23.08
2023-05-02T10:14:11.330Z,23.03
2023-05-02T10:17:31.673Z,22.69
2023-05-02T10:20:49.267Z,22.68
2023-05-02T10:24:05.024Z,23.12
2023-05-02T10:27:17.413Z,22.84
2023-05-02T10:30:30.081Z,23.42
2023-05-02T10:33:42.513Z,23.02
2023-05-02T10:36:56.279Z,23.46
2023-05-02T10:40:12.185Z,23.49
2023-05-02T10:43:26.002Z,23.52
2023-05-02T10:46:41.392Z,23.98
2023-05-02T10:49:55.892Z,23.93
2023-05-02T10:53:33.124Z,23.86
2023-05-02T10:57:12.232Z,24.29
2023-05-02T11:00:25.583Z,24.34
2023-05-02T11:03:57.687Z,24.20
2023-05-02T11:07:09.978Z,24.37
2023-05-02T11:10:22.565Z,24.47
2023-05-02T11:13:51.119Z,24.78
2023-05-02T11:17:06.609Z,24.86
2023-05-02T11:20:19.471Z,24.91
2023-05-02T11:23:32.243Z,24.96
2023-05-02T11:26:45.096Z,24.88
2023-05-02T11:30:10.061Z,25.57
2023-05-02T11:33:22.608Z,25.50
2023-05-02T11:36:35.831Z,25.38
2023-05-02T11:39:48.524Z,25.61
2023-05-02T11:43:01.357Z,25.39
2023-05-02T11:46:13.811Z,25.70
2023-05-02T11:49:26.942Z,25.62
2023-05-02T11:52:40.044Z,25.95
2023-05-02T11:55:57.400Z,25.80
2023-05-02T11:59:09.772Z,25.68
2023-05-02T12:02:40.501Z,25.62
2023-05-02T12:05:54.020Z,25.42
2023-05-02T12:09:11.267Z,25.46
2023-05-02T12:12:23.923Z,25.57
2023-05-02T12:15:36.581Z,25.27
2023-05-02T12:18:49.477Z,25.49
2023-05-02T12:22:01.888Z,25.75
2023-05-02T12:25:14.612Z,26.00
2023-05-02T12:28:27.526Z,25.84
2023-05-02T12:31:40.372Z,26.45
2023-05-02T12:34:52.739Z,26.95
2023-05-02T12:38:16.114Z,26.36
2023-05-02T12:41:32.362Z,26.44
2023-05-02T12:44:45.803Z,26.61
2023-05-02T12:47:58.104Z,26.08
2023-05-02T12:51:24.365Z,26.00
2023-05-02T12:54:36.747Z,25.96
2023-05-02T12:57:49.361Z,25.83
2023-05-02T13:01:01.844Z,25.76
2023-05-02T13:04:14.647Z,25.95
2023-05-02T13:07:26.997Z,26.26
2023-05-02T13:10:39.707Z,25.38
2023-05-02T13:13:52.108Z,25.65
2023-05-02T13:17:04.934Z,25.25
2023-05-02T13:20:17.359Z,25.08
2023-05-02T13:23:29.972Z,25.03
2023-05-02T13:26:42.333Z,25.01
2023-05-02T13:29:55.063Z,24.83
2023-05-02T13:33:07.474Z,24.83
2023-05-02T13:36:20.401Z,25.14
2023-05-02T13:39:32.757Z,24.93
2023-05-02T13:42:45.457Z,24.87
2023-05-02T13:45:57.862Z,24.62
2023-05-02T13:49:10.591Z,24.86
2023-05-02T13:52:22.915Z,24.92
2023-05-02T13:55:35.642Z,24.83
2023-05-02T13:58:47.981Z,24.94
2023-05-02T14:02:00.987Z,24.90
2023-05-02T14:05:13.703Z,24.90
2023-05-02T14:08:26.136Z,24.68
2023-05-02T14:11:38.793Z,24.85
2023-05-02T14:14:51.167Z,24.85
2023-05-02T14:18:03.924Z,24.71
2023-05-02T14:21:17.027Z,24.75
2023-05-02T14:24:30.717Z,24.81
2023-05-02T14:27:43.986Z,24.81
2023-05-02T14:30:56.691Z,24.56
2023-05-02T14:34:09.237Z,24.59
2023-05-02T14:37:21.888Z,24.74
2023-05-02T14:40:34.256Z,24.40
2023-05-02T14:43:47.007Z,24.31
2023-05-02T14:46:59.607Z,24.17
2023-05-02T14:50:12.321Z,24.11
2023-05-02T14:53:24.631Z,24.07
2023-05-02T14:56:37.331Z,23.93
2023-05-02T14:59:50.228Z,23.82
2023-05-02T15:03:06.711Z,24.13
2023-05-02T15:06:20.153Z,23.82
2023-05-02T15:09:32.765Z,24.12
2023-05-02T15:12:46.871Z,24.35
2023-05-02T15:15:59.589Z,24.35
2023-05-02T15:19:11.980Z,24.30
2023-05-02T15:22:26.086Z,24.46
2023-05-02T15:25:38.475Z,24.43
2023-05-02T15:28:51.489Z,24.55
2023-05-02T15:32:03.887Z,24.68
2023-05-02T15:35:16.613Z,24.75
2023-05-02T15:38:28.917Z,24.78
2023-05-02T15:41:42.175Z,24.75
2023-05-02T15:44:54.533Z,24.57
2023-05-02T15:48:07.720Z,24.35
2023-05-02T15:51:20.355Z,24.71
2023-05-02T15:54:33.254Z,24.59
2023-05-02T15:57:45.624Z,24.55
2023-05-02T16:00:58.271Z,24.29
2023-05-02T16:04:10.917Z,24.16
2023-05-02T16:07:23.271Z,24.23
2023-05-02T16:10:36.623Z,24.32
2023-05-02T16:13:49.099Z,24.57
2023-05-02T16:17:01.904Z,24.40
2023-05-02T16:20:14.685Z,24.43
2023-05-02T16:23:27.315Z,24.14
2023-05-02T16:26:39.712Z,24.11
2023-05-02T16:29:52.405Z,23.90
2023-05-02T16:33:04.838Z,23.88
2023-05-02T16:36:18.734Z,23.52
2023-05-02T16:39:31.189Z,23.52
2023-05-02T16:42:43.836Z,23.61
2023-05-02T16:46:02.609Z,23.26
2023-05-02T16:49:15.313Z,23.09
2023-05-02T16:52:27.993Z,22.94
2023-05-02T16:55:40.597Z,22.90
2023-05-02T16:58:53.006Z,22.66
2023-05-02T17:02:05.656Z,22.72
2023-05-02T17:05:20.042Z,22.42
2023-05-02T17:08:32.869Z,22.27
2023-05-02T17:11:45.860Z,22.14
2023-05-02T17:14:58.629Z,22.09
2023-05-02T17:18:11.794Z,22.07
2023-05-02T17:21:24.827Z,22.10
2023-05-02T17:24:37.392Z,22.01
2023-05-02T17:27:50.051Z,21.74
2023-05-02T17:31:03.251Z,21.72
2023-05-02T17:34:15.938Z,21.64
2023-05-02T17:37:28.889Z,21.49
2023-05-02T17:40:41.546Z,21.39
2023-05-02T17:43:53.856Z,20.77
2023-05-02T17:47:06.740Z,20.49
2023-05-02T17:50:19.113Z,20.47
2023-05-02T17:53:32.139Z,20.28
2023-05-02T17:56:44.567Z,20.08
2023-05-02T17:59:59.644Z,19.88
2023-05-02T18:03:12.256Z,19.74
2023-05-02T18:06:24.989Z,19.59
2023-05-02T18:09:37.315Z,19.48
2023-05-02T18:12:49.935Z,19.43
2023-05-02T18:16:02.314Z,19.34
2023-05-02T18:19:15.856Z,19.21
2023-05-02T18:22:28.275Z,19.13
2023-05-02T18:25:40.948Z,19.14
2023-05-02T18:28:53.553Z,19.09
2023-05-02T18:32:06.454Z,19.04
2023-05-02T18:35:18.878Z,19.01
2023-05-02T18:38:32.598Z,18.91
2023-05-02T18:41:44.945Z,18.85
2023-05-02T18:44:57.598Z,18.83
2023-05-02T18:48:10.196Z,18.67
2023-05-02T18:51:24.410Z,18.57
2023-05-02T18:54:36.787Z,18.55
2023-05-02T18:57:49.373Z,18.38
2023-05-02T19:01:02.024Z,18.40
2023-05-02T19:04:14.666Z,18.41
2023-05-02T19:07:27.927Z,18.45
2023-05-02T19:10:40.545Z,18.38
2023-05-02T19:13:53.118Z,18.42
2023-05-02T19:17:06.750Z,18.26
2023-05-02T19:20:19.311Z,18.14
2023-05-02T19:23:32.388Z,18.05
2023-05-02T19:26:44.700Z,17.97
2023-05-02T19:29:58.713Z,17.88
2023-05-02T19:33:11.819Z,17.80
2023-05-02T19:36:24.818Z,17.72
2023-05-02T19:39:37.216Z,17.63
2023-05-02T19:42:49.817Z,17.52
2023-05-02T19:46:02.306Z,17.52
2023-05-02T19:49:15.227Z,17.58
2023-05-02T19:52:27.626Z,17.53
2023-05-02T19:55:40.312Z,17.54
2023-05-02T19:58:53.581Z,17.45
2023-05-02T20:02:06.574Z,17.47
2023-05-02T20:05:19.613Z,17.38
2023-05-02T20:08:32.022Z,17.28
2023-05-02T20:11:44.719Z,17.22
2023-05-02T20:14:57.039Z,17.18
2023-05-02T20:18:09.739Z,17.13
2023-05-02T20:21:22.077Z,17.21
2023-05-02T20:24:34.665Z,17.16
2023-05-02T20:27:46.978Z,17.16
2023-05-02T20:30:59.617Z,17.26
2023-05-02T20:34:11.965Z,17.25
2023-05-02T20:37:25.679Z,17.18
2023-05-02T20:40:39.605Z,17.26
2023-05-02T20:43:54.576Z,17.05
2023-05-02T20:47:07.091Z,17.10
2023-05-02T20:50:19.853Z,17.15
2023-05-02T20:53:32.173Z,17.28
2023-05-02T20:56:44.810Z,17.27
2023-05-02T20:59:59.596Z,17.30
2023-05-02T21:03:12.403Z,17.19
2023-05-02T21:06:24.874Z,17.25
2023-05-02T21:09:37.566Z,17.17
2023-05-02T21:12:49.886Z,17.11
2023-05-02T21:16:02.523Z,17.00
2023-05-02T21:19:14.883Z,17.00
2023-05-02T21:22:27.519Z,16.98
2023-05-02T21:25:39.970Z,16.95
2023-05-02T21:28:52.920Z,16.94
2023-05-02T21:32:05.734Z,16.92
2023-05-02T21:35:18.531Z,16.91
2023-05-02T21:38:30.908Z,16.76
2023-05-02T21:41:43.571Z,16.62
2023-05-02T21:44:55.876Z,16.51
2023-05-02T21:48:08.574Z,16.49
2023-05-02T21:51:21.424Z,16.35
2023-05-02T21:54:34.099Z,16.42
2023-05-02T21:57:46.656Z,16.36
2023-05-02T22:00:59.533Z,16.31
2023-05-02T22:04:12.804Z,16.32
2023-05-02T22:07:25.237Z,16.21
2023-05-02T22:10:38.785Z,15.94
2023-05-02T22:13:51.289Z,15.83
2023-05-02T22:17:04.720Z,15.77
2023-05-02T22:20:17.188Z,15.74
2023-05-02T22:23:31.174Z,15.48
2023-05-02T22:26:43.708Z,15.48
2023-05-02T22:29:56.470Z,15.43
2023-05-02T22:33:09.359Z,15.55
2023-05-02T22:36:22.664Z,15.46
2023-05-02T22:39:35.070Z,15.61
2023-05-02T22:42:47.721Z,15.92
2023-05-02T22:46:00.144Z,16.00
2023-05-02T22:49:12.804Z,15.60
2023-05-02T22:52:27.276Z,15.51
2023-05-02T22:55:39.964Z,15.48
2023-05-02T22:58:53.257Z,15.52
2023-05-02T23:02:05.936Z,15.55
2023-05-02T23:05:18.867Z,15.53
2023-05-02T23:08:31.553Z,15.52
2023-05-02T23:11:43.878Z,15.60
2023-05-02T23:14:56.941Z,15.54
2023-05-02T23:18:09.323Z,15.52
2023-05-02T23:21:22.002Z,15.40
2023-05-02T23:24:34.355Z,15.57
2023-05-02T23:27:46.994Z,15.45
2023-05-02T23:30:59.470Z,15.30
2023-05-02T23:34:12.453Z,15.09
2023-05-02T23:37:24.791Z,14.98
2023-05-02T23:40:37.418Z,14.90
2023-05-02T23:43:49.955Z,15.03
2023-05-02T23:47:02.711Z,15.00
2023-05-02T23:50:15.204Z,14.89
2023-05-02T23:53:27.796Z,15.01
2023-05-02T23:56:40.155Z,14.86
2023-05-02T23:59:53.463Z,14.86
